Salalah, Oman
Current Conditions -  °F | °C
As of 1:55 PM on Tuesday 27 Jan 2015 (Local Time) from KQTH Reporting Station
Clear Clear  
Wind Chill: 75°   Ceiling: Unl
Heat Index: 75°   Visibility: 6mi
Dew Point: 43°   Wind: 10mph
Humidity: 32%   Direction: 70°ENE
Pressure: 30.18"   Gusts: 18mph
Location:  17.02°N, 54.09°E
Report Text: KQTH 270955Z AUTO 07009G16KT 9999 CLR 24/06 A3018 RMK AO2 SLP213 T02380061 $
Loading
Personal Weather Stations






























Interactive Weather Map New forecast layout! Learn more

10-Day Weather Forecast

Advertisements
Track Severe Weather on mobile